createdAt,value
2022-12-07T00:01:49.557Z,5.57
2022-12-07T00:04:20.206Z,5.20
2022-12-07T00:06:53.244Z,4.47
2022-12-07T00:09:22.036Z,5.40
2022-12-07T00:11:53.390Z,5.53
2022-12-07T00:14:22.566Z,4.90
2022-12-07T00:16:53.056Z,3.80
2022-12-07T00:19:21.723Z,3.40
2022-12-07T00:21:50.093Z,3.30
2022-12-07T00:24:18.695Z,3.00
2022-12-07T00:26:47.129Z,3.43
2022-12-07T00:29:20.087Z,3.03
2022-12-07T00:31:50.155Z,3.20
2022-12-07T00:34:21.030Z,4.63
2022-12-07T00:36:50.163Z,3.50
2022-12-07T00:39:18.956Z,3.70
2022-12-07T00:41:47.243Z,3.60
2022-12-07T00:44:16.880Z,3.00
2022-12-07T00:46:46.459Z,3.00
2022-12-07T00:49:14.743Z,3.37
2022-12-07T00:51:42.961Z,2.57
2022-12-07T00:54:11.116Z,2.60
2022-12-07T00:56:39.282Z,2.40
2022-12-07T00:59:07.958Z,2.63
2022-12-07T01:01:38.939Z,2.17
2022-12-07T01:04:08.203Z,2.50
2022-12-07T01:06:36.810Z,3.40
2022-12-07T01:09:07.197Z,2.10
2022-12-07T01:11:35.607Z,1.87
2022-12-07T01:14:04.102Z,2.30
2022-12-07T01:16:34.645Z,2.07
2022-12-07T01:19:05.691Z,2.17
2022-12-07T01:21:38.634Z,2.37
2022-12-07T01:24:11.050Z,2.77
2022-12-07T01:26:39.655Z,1.80
2022-12-07T01:29:07.943Z,2.47
2022-12-07T01:31:36.250Z,2.13
2022-12-07T01:34:05.821Z,1.90
2022-12-07T01:36:36.406Z,1.90
2022-12-07T01:39:08.134Z,2.33
2022-12-07T01:41:41.371Z,2.13
2022-12-07T01:44:23.725Z,2.50
2022-12-07T01:46:54.450Z,2.80
2022-12-07T01:49:36.093Z,2.70
2022-12-07T01:52:18.363Z,2.03
2022-12-07T01:54:50.034Z,2.07
2022-12-07T01:57:19.405Z,2.20
2022-12-07T01:59:49.870Z,2.20
2022-12-07T02:02:22.779Z,2.37
2022-12-07T02:04:54.893Z,2.27
2022-12-07T02:07:24.047Z,2.10
2022-12-07T02:09:52.374Z,1.90
2022-12-07T02:12:21.368Z,1.73
2022-12-07T02:14:49.800Z,1.70
2022-12-07T02:17:27.739Z,1.50
2022-12-07T02:20:28.301Z,1.33
2022-12-07T02:23:41.515Z,2.23
2022-12-07T02:27:03.062Z,1.20
2022-12-07T02:29:38.281Z,3.37
2022-12-07T02:32:14.611Z,1.77
2022-12-07T02:34:51.048Z,1.87
2022-12-07T02:37:37.434Z,4.80
2022-12-07T02:40:13.739Z,2.57
2022-12-07T02:42:48.114Z,2.17
2022-12-07T02:45:23.021Z,1.30
2022-12-07T02:47:55.476Z,1.60
2022-12-07T02:50:24.393Z,1.50
2022-12-07T02:52:53.014Z,1.27
2022-12-07T02:55:29.154Z,1.37
2022-12-07T02:58:24.858Z,1.40
2022-12-07T03:01:08.085Z,1.60
2022-12-07T03:03:39.814Z,1.30
2022-12-07T03:06:19.542Z,1.80
2022-12-07T03:08:58.498Z,1.57
2022-12-07T03:11:32.142Z,1.60
2022-12-07T03:14:08.594Z,2.00
2022-12-07T03:16:44.747Z,1.63
2022-12-07T03:19:18.453Z,1.63
2022-12-07T03:21:53.734Z,1.47
2022-12-07T03:24:27.290Z,2.00
2022-12-07T03:27:01.886Z,1.80
2022-12-07T03:29:36.779Z,1.77
2022-12-07T03:32:11.072Z,1.83
2022-12-07T03:34:43.612Z,3.10
2022-12-07T03:37:19.465Z,1.70
2022-12-07T03:39:58.440Z,1.53
2022-12-07T03:42:27.222Z,1.60
2022-12-07T03:44:55.676Z,2.27
2022-12-07T03:47:32.139Z,1.90
2022-12-07T03:50:05.298Z,2.43
2022-12-07T03:52:38.664Z,2.00
2022-12-07T03:55:12.827Z,1.80
2022-12-07T03:57:44.332Z,2.23
2022-12-07T04:00:14.762Z,2.43
2022-12-07T04:02:44.969Z,3.10
2022-12-07T04:05:13.686Z,3.80
2022-12-07T04:07:43.348Z,3.30
2022-12-07T04:10:12.874Z,2.77
2022-12-07T04:12:41.453Z,1.93
2022-12-07T04:15:11.033Z,1.93
2022-12-07T04:17:39.503Z,1.77
2022-12-07T04:20:11.626Z,1.30
2022-12-07T04:22:39.914Z,1.70
2022-12-07T04:25:09.078Z,1.30
2022-12-07T04:27:37.310Z,1.43
2022-12-07T04:30:06.975Z,1.90
2022-12-07T04:32:35.178Z,1.00
2022-12-07T04:35:03.533Z,1.07
2022-12-07T04:37:33.386Z,1.43
2022-12-07T04:40:01.822Z,1.57
2022-12-07T04:42:30.289Z,1.67
2022-12-07T04:44:58.488Z,1.73
2022-12-07T04:47:26.664Z,1.60
2022-12-07T04:49:55.339Z,1.40
2022-12-07T04:52:23.615Z,1.43
2022-12-07T04:54:53.197Z,1.50
2022-12-07T04:57:21.389Z,1.63
2022-12-07T04:59:49.558Z,1.47
2022-12-07T05:02:17.850Z,1.70
2022-12-07T05:04:46.052Z,1.63
2022-12-07T05:07:14.393Z,1.37
2022-12-07T05:09:42.611Z,1.30
2022-12-07T05:12:12.296Z,1.97
2022-12-07T05:14:40.500Z,1.70
2022-12-07T05:17:08.753Z,1.23
2022-12-07T05:19:36.980Z,1.50
2022-12-07T05:22:05.216Z,1.00
2022-12-07T05:24:33.471Z,1.30
2022-12-07T05:27:01.617Z,1.33
2022-12-07T05:29:31.395Z,1.73
2022-12-07T05:31:59.631Z,1.43
2022-12-07T05:34:28.150Z,1.07
2022-12-07T05:36:56.358Z,1.20
2022-12-07T05:39:24.527Z,1.20
2022-12-07T05:42:10.323Z,1.40
2022-12-07T05:44:39.886Z,1.50
2022-12-07T05:47:08.564Z,1.40
2022-12-07T05:49:36.907Z,1.30
2022-12-07T05:52:06.085Z,1.40
2022-12-07T05:54:34.999Z,1.70
2022-12-07T05:57:03.535Z,1.20
2022-12-07T05:59:30.836Z,1.40
2022-12-07T06:02:02.391Z,1.23
2022-12-07T06:04:35.625Z,1.20
2022-12-07T06:07:04.126Z,1.40
2022-12-07T06:09:32.951Z,1.50
2022-12-07T06:12:18.930Z,1.77
2022-12-07T06:14:47.313Z,2.17
2022-12-07T06:17:17.487Z,1.43
2022-12-07T06:19:46.519Z,1.67
2022-12-07T06:22:17.075Z,1.80
2022-12-07T06:24:45.520Z,2.13
2022-12-07T06:27:13.901Z,2.03
2022-12-07T06:29:42.178Z,1.57
2022-12-07T06:32:10.563Z,2.10
2022-12-07T06:34:40.473Z,3.60
2022-12-07T06:37:09.074Z,1.60
2022-12-07T06:39:37.345Z,2.20
2022-12-07T06:42:06.031Z,1.83
2022-12-07T06:44:34.534Z,2.23
2022-12-07T06:47:32.023Z,2.00
2022-12-07T06:49:52.710Z,2.10
2022-12-07T06:52:20.928Z,1.70
2022-12-07T06:54:49.392Z,2.10
2022-12-07T06:57:17.598Z,1.87
2022-12-07T06:59:45.913Z,2.40
2022-12-07T07:02:14.169Z,2.07
2022-12-07T07:04:42.502Z,2.00
2022-12-07T07:07:12.165Z,1.90
2022-12-07T07:09:40.436Z,2.70
2022-12-07T07:12:08.663Z,2.47
2022-12-07T07:14:37.501Z,2.70
2022-12-07T07:17:05.699Z,2.67
2022-12-07T07:19:33.918Z,2.47
2022-12-07T07:22:02.280Z,2.60
2022-12-07T07:24:32.108Z,2.60
2022-12-07T07:27:00.364Z,2.27
2022-12-07T07:29:28.553Z,2.30
2022-12-07T07:31:59.515Z,2.10
2022-12-07T07:34:30.134Z,1.60
2022-12-07T07:36:58.375Z,2.03
2022-12-07T07:39:26.655Z,1.73
2022-12-07T07:41:56.228Z,1.60
2022-12-07T07:44:24.463Z,1.63
2022-12-07T07:46:52.654Z,1.43
2022-12-07T07:49:20.805Z,1.90
2022-12-07T07:51:50.138Z,1.80
2022-12-07T07:54:18.635Z,1.90
2022-12-07T07:56:46.900Z,1.40
2022-12-07T07:59:16.896Z,1.30
2022-12-07T08:01:45.156Z,2.27
2022-12-07T08:04:13.413Z,1.60
2022-12-07T08:06:43.001Z,2.63
2022-12-07T08:09:11.930Z,2.00
2022-12-07T08:11:40.170Z,2.63
2022-12-07T08:14:08.421Z,2.00
2022-12-07T08:16:38.051Z,2.40
2022-12-07T08:19:07.603Z,2.80
2022-12-07T08:21:35.860Z,2.20
2022-12-07T08:24:04.566Z,2.23
2022-12-07T08:26:32.807Z,2.67
2022-12-07T08:29:01.050Z,3.67
2022-12-07T08:31:29.882Z,5.67
2022-12-07T08:33:59.913Z,2.43
2022-12-07T08:36:28.369Z,2.23
2022-12-07T08:39:29.662Z,1.90
2022-12-07T08:41:44.869Z,1.73
2022-12-07T08:44:13.139Z,2.30
2022-12-07T08:46:46.617Z,1.97
2022-12-07T08:49:20.074Z,1.70
2022-12-07T08:51:49.012Z,2.73
2022-12-07T08:54:19.947Z,1.97
2022-12-07T08:56:53.018Z,1.60
2022-12-07T08:59:25.754Z,2.87
2022-12-07T09:01:54.132Z,2.73
2022-12-07T09:04:23.762Z,2.30
2022-12-07T09:06:52.290Z,2.40
2022-12-07T09:09:20.506Z,2.33
2022-12-07T09:11:48.982Z,2.77
2022-12-07T09:14:18.273Z,2.87
2022-12-07T09:16:46.537Z,3.30
2022-12-07T09:19:14.965Z,2.30
2022-12-07T09:21:44.524Z,1.90
2022-12-07T09:24:14.186Z,2.13
2022-12-07T09:26:42.409Z,3.33
2022-12-07T09:29:10.640Z,3.57
2022-12-07T09:31:39.858Z,2.87
2022-12-07T09:34:08.360Z,2.87
2022-12-07T09:36:36.983Z,2.80
2022-12-07T09:39:06.832Z,3.37
2022-12-07T09:41:35.319Z,2.70
2022-12-07T09:44:08.163Z,2.20
2022-12-07T09:46:39.538Z,2.60
2022-12-07T09:49:12.697Z,3.10
2022-12-07T09:51:41.155Z,2.67
2022-12-07T09:54:15.856Z,2.10
2022-12-07T09:56:44.690Z,2.10
2022-12-07T09:59:19.582Z,2.30
2022-12-07T10:01:50.289Z,2.33
2022-12-07T10:04:22.849Z,3.23
2022-12-07T10:06:52.289Z,1.90
2022-12-07T10:09:23.922Z,2.10
2022-12-07T10:12:08.012Z,2.30
2022-12-07T10:15:09.429Z,2.10
2022-12-07T10:17:41.877Z,3.27
2022-12-07T10:20:29.017Z,2.33
2022-12-07T10:23:05.556Z,1.93
2022-12-07T10:25:38.887Z,2.00
2022-12-07T10:28:19.045Z,2.00
2022-12-07T10:31:03.103Z,2.80
2022-12-07T10:33:38.328Z,2.83
2022-12-07T10:36:22.684Z,2.20
2022-12-07T10:38:53.507Z,2.40
2022-12-07T10:41:23.134Z,2.73
2022-12-07T10:43:57.434Z,2.43
2022-12-07T10:47:08.184Z,1.80
2022-12-07T10:50:00.637Z,2.30
2022-12-07T10:53:10.987Z,2.27
2022-12-07T10:55:59.294Z,2.47
2022-12-07T10:58:48.878Z,2.30
2022-12-07T11:01:26.483Z,2.83
2022-12-07T11:04:17.424Z,2.30
2022-12-07T11:06:54.276Z,2.30
2022-12-07T11:12:59.982Z,2.50
2022-12-07T11:15:44.259Z,2.43
2022-12-07T11:18:24.321Z,2.23
2022-12-07T11:21:01.179Z,2.23
2022-12-07T11:23:42.458Z,1.83
2022-12-07T11:26:23.806Z,2.43
2022-12-07T11:29:23.521Z,2.70
2022-12-07T11:32:07.780Z,2.83
2022-12-07T11:34:47.799Z,2.83
2022-12-07T11:37:20.560Z,3.20
2022-12-07T11:39:53.461Z,2.30
2022-12-07T11:42:26.812Z,1.90
2022-12-07T11:44:59.715Z,1.67
2022-12-07T11:47:37.565Z,2.10
2022-12-07T11:50:24.622Z,1.60
2022-12-07T11:52:58.308Z,2.20
2022-12-07T11:55:34.937Z,2.57
2022-12-07T11:58:10.241Z,1.90
2022-12-07T12:00:40.022Z,1.60
2022-12-07T12:03:18.244Z,1.47
2022-12-07T12:05:46.523Z,1.17
2022-12-07T12:11:31.235Z,1.20
2022-12-07T12:17:45.447Z,0.80
2022-12-07T12:20:26.081Z,0.93
2022-12-07T12:22:58.244Z,0.97
2022-12-07T12:25:30.962Z,1.00
2022-12-07T12:28:01.791Z,1.03
2022-12-07T12:30:37.306Z,1.10
2022-12-07T12:33:15.984Z,1.23
2022-12-07T12:35:46.433Z,1.53
2022-12-07T12:38:34.307Z,1.83
2022-12-07T12:41:04.430Z,1.20
2022-12-07T12:43:59.732Z,1.20
2022-12-07T12:46:50.242Z,1.30
2022-12-07T12:50:01.321Z,1.23
2022-12-07T12:52:58.016Z,1.20
2022-12-07T12:56:23.399Z,1.10
2022-12-07T12:58:53.428Z,1.07
2022-12-07T13:01:44.729Z,0.97
2022-12-07T13:04:52.593Z,1.03
2022-12-07T13:08:00.930Z,1.30
2022-12-07T13:10:42.152Z,1.17
2022-12-07T13:13:37.502Z,1.00
2022-12-07T13:16:51.620Z,1.37
2022-12-07T13:19:56.036Z,1.43
2022-12-07T13:23:00.878Z,1.50
2022-12-07T13:25:47.484Z,2.17
2022-12-07T13:28:19.569Z,1.07
2022-12-07T13:31:00.321Z,1.20
2022-12-07T13:33:30.476Z,1.80
2022-12-07T13:36:01.215Z,1.47
2022-12-07T13:38:35.411Z,1.10
2022-12-07T13:41:15.968Z,1.00
2022-12-07T13:43:51.343Z,1.10
2022-12-07T13:46:23.246Z,1.03
2022-12-07T13:48:52.979Z,1.60
2022-12-07T13:51:24.804Z,2.17
2022-12-07T13:53:56.947Z,2.83
2022-12-07T13:56:34.811Z,2.10
2022-12-07T13:59:03.599Z,4.00
2022-12-07T14:01:34.055Z,1.60
2022-12-07T14:04:22.119Z,2.57
2022-12-07T14:06:52.819Z,2.10
2022-12-07T14:09:24.455Z,1.40
2022-12-07T14:11:56.636Z,1.10
2022-12-07T14:14:34.566Z,0.90
2022-12-07T14:17:20.988Z,1.53
2022-12-07T14:19:53.330Z,0.70
2022-12-07T14:22:31.399Z,0.90
2022-12-07T14:25:23.367Z,0.80
2022-12-07T14:27:57.197Z,0.90
2022-12-07T14:30:28.646Z,1.20
2022-12-07T14:33:01.399Z,1.50
2022-12-07T14:35:31.124Z,1.90
2022-12-07T14:37:59.764Z,3.00
2022-12-07T14:40:31.370Z,2.60
2022-12-07T14:43:04.557Z,2.37
2022-12-07T14:45:33.655Z,2.27
2022-12-07T14:53:53.370Z,1.00
2022-12-07T14:56:26.862Z,1.07
2022-12-07T14:58:55.292Z,1.00
2022-12-07T15:01:24.465Z,1.10
2022-12-07T15:03:52.890Z,2.10
2022-12-07T15:06:21.329Z,3.13
2022-12-07T15:08:49.801Z,1.43
2022-12-07T15:11:20.206Z,1.40
2022-12-07T15:14:08.045Z,1.30
2022-12-07T15:17:06.911Z,1.60
2022-12-07T15:19:28.974Z,1.40
2022-12-07T15:22:00.839Z,1.40
2022-12-07T15:24:29.855Z,1.40
2022-12-07T15:26:58.310Z,2.33
2022-12-07T15:29:28.534Z,1.50
2022-12-07T15:31:58.324Z,2.00
2022-12-07T15:34:34.714Z,1.97
2022-12-07T15:37:07.955Z,2.03
2022-12-07T15:39:37.210Z,1.90
2022-12-07T15:42:06.060Z,1.60
2022-12-07T15:44:52.975Z,1.80
2022-12-07T15:47:21.674Z,2.00
2022-12-07T15:49:50.433Z,1.83
2022-12-07T15:52:20.076Z,2.63
2022-12-07T15:54:49.192Z,2.30
2022-12-07T15:57:20.789Z,3.27
2022-12-07T15:59:55.017Z,4.10
2022-12-07T16:02:24.473Z,3.53
2022-12-07T16:04:53.947Z,2.90
2022-12-07T16:07:22.166Z,2.20
2022-12-07T16:09:51.535Z,2.40
2022-12-07T16:12:20.039Z,2.50
2022-12-07T16:14:48.257Z,2.73
2022-12-07T16:17:17.822Z,2.77
2022-12-07T16:19:46.001Z,3.00
2022-12-07T16:22:14.170Z,2.73
2022-12-07T16:24:42.705Z,2.80
2022-12-07T16:27:11.307Z,3.10
2022-12-07T16:29:39.615Z,3.37
2022-12-07T16:32:08.200Z,2.47
2022-12-07T16:34:37.826Z,2.50
2022-12-07T16:37:06.273Z,2.70
2022-12-07T16:39:36.640Z,3.77
2022-12-07T16:42:06.515Z,3.27
2022-12-07T16:44:34.952Z,3.80
2022-12-07T16:47:03.265Z,3.07
2022-12-07T16:49:31.743Z,2.10
2022-12-07T16:54:51.513Z,2.80
2022-12-07T16:57:23.512Z,3.27
2022-12-07T16:59:52.703Z,2.40
2022-12-07T17:02:21.589Z,2.37
2022-12-07T17:04:49.846Z,2.27
2022-12-07T17:07:19.460Z,2.60
2022-12-07T17:09:47.757Z,2.50
2022-12-07T17:12:16.009Z,2.07
2022-12-07T17:14:58.097Z,2.00
2022-12-07T17:17:26.555Z,2.30
2022-12-07T17:19:54.800Z,1.90
2022-12-07T17:22:25.125Z,2.00
2022-12-07T17:24:53.743Z,1.80
2022-12-07T17:27:21.975Z,1.40
2022-12-07T17:29:50.222Z,1.70
2022-12-07T17:32:18.411Z,1.87
2022-12-07T17:34:46.633Z,2.03
2022-12-07T17:37:15.196Z,2.10
2022-12-07T17:39:45.094Z,2.00
2022-12-07T17:42:31.005Z,1.80
2022-12-07T17:44:59.779Z,1.90
2022-12-07T17:47:28.320Z,2.50
2022-12-07T17:49:57.877Z,2.10
2022-12-07T17:52:46.264Z,2.17
2022-12-07T17:55:15.830Z,2.20
2022-12-07T17:57:44.038Z,2.10
2022-12-07T18:00:14.743Z,2.33
2022-12-07T18:02:42.993Z,2.30
2022-12-07T18:05:11.826Z,2.53
2022-12-07T18:07:40.086Z,3.37
2022-12-07T18:10:11.873Z,3.30
2022-12-07T18:12:41.522Z,3.77
2022-12-07T18:15:10.675Z,3.90
2022-12-07T18:17:38.851Z,3.50
2022-12-07T18:20:08.990Z,4.10
2022-12-07T18:22:37.672Z,4.47
2022-12-07T18:25:07.500Z,4.40
2022-12-07T18:27:35.668Z,4.07
2022-12-07T18:30:06.611Z,4.07
2022-12-07T18:32:34.843Z,4.07
2022-12-07T18:35:03.489Z,3.60
2022-12-07T18:37:33.343Z,3.50
2022-12-07T18:40:01.600Z,3.33
2022-12-07T18:42:29.876Z,3.97
2022-12-07T18:44:58.351Z,3.80
2022-12-07T18:47:28.248Z,4.17
2022-12-07T18:49:56.504Z,4.30
2022-12-07T18:52:24.829Z,4.00
2022-12-07T18:54:53.113Z,4.17
2022-12-07T18:57:21.360Z,4.07
2022-12-07T18:59:50.147Z,5.30
2022-12-07T19:02:20.145Z,3.80
2022-12-07T19:04:49.920Z,4.47
2022-12-07T19:07:18.682Z,4.03
2022-12-07T19:09:46.978Z,3.60
2022-12-07T19:12:16.044Z,3.40
2022-12-07T19:14:44.250Z,3.10
2022-12-07T19:17:14.919Z,3.23
2022-12-07T19:19:45.363Z,2.90
2022-12-07T19:22:18.319Z,3.47
2022-12-07T19:24:49.216Z,3.37
2022-12-07T19:27:18.780Z,3.17
2022-12-07T19:29:47.800Z,3.60
2022-12-07T19:32:17.295Z,3.17
2022-12-07T19:34:47.929Z,3.63
2022-12-07T19:37:17.832Z,2.83
2022-12-07T19:39:46.598Z,3.27
2022-12-07T19:42:15.337Z,3.43
2022-12-07T19:44:43.575Z,4.33
2022-12-07T19:47:11.907Z,3.30
2022-12-07T19:49:40.112Z,3.73
2022-12-07T19:52:09.834Z,3.60
2022-12-07T19:54:40.810Z,3.23
2022-12-07T19:57:14.963Z,3.13
2022-12-07T19:59:43.491Z,3.97
2022-12-07T20:02:15.857Z,3.10
2022-12-07T20:04:44.326Z,2.83
2022-12-07T20:07:12.586Z,3.00
2022-12-07T20:09:42.825Z,3.00
2022-12-07T20:12:29.441Z,3.33
2022-12-07T20:14:57.747Z,2.90
2022-12-07T20:17:26.062Z,2.90
2022-12-07T20:19:54.317Z,2.50
2022-12-07T20:22:22.530Z,3.03
2022-12-07T20:24:52.158Z,3.50
2022-12-07T20:27:20.315Z,3.23
2022-12-07T20:29:50.680Z,2.63
2022-12-07T20:32:19.022Z,3.60
2022-12-07T20:34:47.849Z,4.60
2022-12-07T20:37:16.024Z,5.00
2022-12-07T20:39:44.236Z,5.03
2022-12-07T20:42:31.564Z,5.30
2022-12-07T20:45:03.357Z,5.80
2022-12-07T20:47:33.137Z,5.67
2022-12-07T20:50:01.450Z,7.33
2022-12-07T20:52:31.723Z,6.80
2022-12-07T20:55:00.072Z,6.60
2022-12-07T20:57:29.754Z,6.47
2022-12-07T20:59:57.938Z,6.53
2022-12-07T21:02:26.530Z,6.90
2022-12-07T21:04:54.869Z,7.13
2022-12-07T21:07:23.053Z,6.87
2022-12-07T21:09:51.845Z,6.77
2022-12-07T21:12:20.336Z,7.50
2022-12-07T21:14:49.931Z,8.80
2022-12-07T21:17:18.126Z,8.30
2022-12-07T21:19:46.550Z,8.23
2022-12-07T21:22:15.638Z,8.10
2022-12-07T21:24:43.868Z,7.20
2022-12-07T21:27:12.041Z,8.20
2022-12-07T21:29:44.255Z,8.00
2022-12-07T21:32:15.498Z,6.57
2022-12-07T21:34:43.799Z,7.00
2022-12-07T21:37:12.019Z,6.73
2022-12-07T21:39:40.194Z,7.20
2022-12-07T21:42:08.408Z,6.43
2022-12-07T21:44:36.920Z,5.73
2022-12-07T21:47:05.682Z,6.27
2022-12-07T21:49:36.352Z,5.93
2022-12-07T21:52:04.760Z,5.33
2022-12-07T21:54:33.427Z,5.33
2022-12-07T21:57:01.626Z,4.80
2022-12-07T21:59:30.007Z,4.97
2022-12-07T22:01:58.296Z,5.17
2022-12-07T22:04:28.113Z,5.83
2022-12-07T22:06:59.120Z,5.20
2022-12-07T22:09:29.944Z,5.60
2022-12-07T22:11:58.607Z,5.30
2022-12-07T22:14:44.277Z,4.33
2022-12-07T22:17:12.533Z,4.50
2022-12-07T22:19:42.025Z,4.67
2022-12-07T22:22:15.456Z,4.93
2022-12-07T22:24:44.308Z,4.77
2022-12-07T22:27:15.149Z,4.90
2022-12-07T22:29:43.401Z,4.43
2022-12-07T22:32:39.906Z,4.33
2022-12-07T22:34:59.814Z,4.50
2022-12-07T22:37:30.682Z,5.00
2022-12-07T22:39:58.922Z,4.70
2022-12-07T22:42:27.295Z,4.43
2022-12-07T22:44:55.569Z,5.00
2022-12-07T22:47:23.742Z,4.70
2022-12-07T22:49:52.488Z,4.17
2022-12-07T22:52:20.946Z,4.07
2022-12-07T22:54:50.488Z,3.90
2022-12-07T22:57:18.643Z,4.37
2022-12-07T22:59:46.844Z,4.37
2022-12-07T23:02:15.258Z,3.83
2022-12-07T23:04:43.872Z,3.43
2022-12-07T23:07:12.411Z,4.10
2022-12-07T23:09:40.649Z,3.30
2022-12-07T23:12:28.927Z,3.90
2022-12-07T23:14:57.096Z,3.70
2022-12-07T23:17:25.330Z,3.17
2022-12-07T23:19:55.988Z,2.97
2022-12-07T23:22:24.723Z,3.40
2022-12-07T23:24:52.922Z,3.17
2022-12-07T23:27:22.932Z,4.07
2022-12-07T23:29:51.175Z,2.80
2022-12-07T23:32:19.430Z,3.10
2022-12-07T23:34:47.650Z,2.97
2022-12-07T23:37:15.947Z,2.60
2022-12-07T23:39:44.135Z,2.80
2022-12-07T23:42:12.447Z,2.60
2022-12-07T23:44:42.109Z,2.53
2022-12-07T23:47:10.671Z,2.37
2022-12-07T23:49:39.265Z,2.87
2022-12-07T23:52:07.656Z,2.47
2022-12-07T23:54:35.889Z,2.33
2022-12-07T23:57:04.174Z,2.10
2022-12-07T23:59:33.031Z,2.07
